Pagrindinis puslapis
METAR-TAF:

METAR-TAF

Oro uostai :

Hohhot, Kinija

platuma: 40-49N, ilguma: 111-41E, Aukštis: 1065 m

Dabartinis oras

Ataskaita buvo paskelbta 1 valandą ir 0 minutes, ne 16:00 UTC
Vėjas 6 kt iš Šiaurės Rytų
Temperatūra 21°C
Drėgmė 33%
Slėgis 1007 hPa
Matomumas 10 km arba daugiau
nėra debesų žemiau 1500 m ir nėra kamuolinių lietaus debesų

METAR: ZBHH 051600Z 04003MPS CAVOK 21/04 Q1007 NOSIG

Laikas: 01:00 (17:00 UTC)

Prognozė

Ataskaita buvo paskelbta 7 valandos ir 58 minutes, ne 09:02 UTC
Prognozė galioja nuo 05 metu 12 UTC su 06 metu 12 UTC
Vėjas 8 kt iš Vakarų/Pietvakarių
Matomumas 10 km arba daugiau
Mažai debesys ne aukštis 4000 ft
Laikinai
nuo 06 metu 08 UTC su 06 metu 12 UTC
Mažai debesys ne aukštis 4000 ft, Liūtiniai kamuoliniai debesys.
Išsisklaidę debesys ne aukštis 4000 ft

TAF: ZBHH 050902Z 0512/0612 24004MPS 9999 FEW040 TX32/0607Z TN13/0523Z TEMPO 0608/0612 FEW040CB SCT040

Orai ataskaitas ir orų prognozės (METAR, TAF).

turimą stotys yra geltonos ir raudonos taškus žemėlapyje.

Perkelti pele per norėdami pamatyti stoties vardą.

Tada spustelėkite, norėdami matyti oro stebėjimo ir prognozės.

Norėdami pakeisti žemėlapį: spustelėkite ant žalios mygtukų su juodo kryžiaus žemyn,; žalią mygtuką su brūkšneliu, jei norite nutolinti; arba žalių rodyklių gretimoms žemėlapius.


METAR-TAF: